Time;durP1;ratioP1;P1;durP2;ratioP2;P2;SDS_P1;SDS_P2;PMS_P1;PMS_P2;Temp;Humidity;BMP_temperature;BMP_pressure;BME280_temperature;BME280_humidity;BME280_pressure;Samples;Min_cycle;Max_cycle;Signal;HPM_P1;HPM_P2
2021/07/23 00:01:27;;;;;;;5.72;5.20;;;14.40;99.90;;;;;;5054705;28;20120;-77
2021/07/23 00:03:54;;;;;;;6.03;5.13;;;14.40;99.90;;;;;;5054361;28;20025;-73
2021/07/23 00:06:20;;;;;;;6.80;6.15;;;14.40;99.90;;;;;;5044784;28;20110;-76
2021/07/23 00:08:45;;;;;;;6.30;5.50;;;14.30;99.90;;;;;;5075150;28;20103;-78
2021/07/23 00:11:11;;;;;;;6.25;5.55;;;14.30;99.90;;;;;;5055850;28;20032;-76
2021/07/23 00:13:37;;;;;;;8.68;5.78;;;14.30;99.90;;;;;;5074632;28;20029;-81
2021/07/23 00:16:02;;;;;;;8.93;5.88;;;14.30;99.90;;;;;;5074470;28;20044;-83
2021/07/23 00:18:28;;;;;;;7.07;5.75;;;14.20;99.90;;;;;;5073795;28;20091;-83
2021/07/23 00:20:53;;;;;;;6.05;5.45;;;14.20;99.90;;;;;;5056728;28;20021;-75
2021/07/23 00:23:19;;;;;;;7.18;5.47;;;14.20;99.90;;;;;;5056215;28;20043;-77
2021/07/23 00:25:44;;;;;;;6.47;5.88;;;14.10;99.90;;;;;;5074182;28;20396;-77
2021/07/23 00:28:10;;;;;;;6.55;5.47;;;14.10;99.90;;;;;;5056557;28;20009;-75
2021/07/23 00:30:35;;;;;;;6.60;5.55;;;14.10;99.90;;;;;;5074460;28;20090;-72
2021/07/23 00:33:01;;;;;;;8.77;5.88;;;14.10;99.90;;;;;;5073778;28;20071;-80
2021/07/23 00:35:28;;;;;;;6.03;5.43;;;14.10;99.90;;;;;;5074173;28;20075;-81
2021/07/23 00:37:55;;;;;;;6.65;5.90;;;14.10;99.90;;;;;;5037408;28;20060;-77
2021/07/23 00:40:21;;;;;;;6.65;5.65;;;14.10;99.90;;;;;;5052983;28;20036;-80
2021/07/23 00:42:46;;;;;;;7.35;5.70;;;14.00;99.90;;;;;;5054215;28;20025;-76
2021/07/23 00:45:12;;;;;;;6.40;5.80;;;14.00;99.90;;;;;;5053734;28;20028;-81
2021/07/23 00:47:44;;;;;;;5.93;5.28;;;14.00;99.90;;;;;;5053415;28;20052;-82
2021/07/23 00:50:10;;;;;;;7.47;5.80;;;14.00;99.90;;;;;;5053935;28;20492;-79
2021/07/23 00:52:37;;;;;;;8.07;6.35;;;14.00;99.90;;;;;;5035449;28;20056;-82
2021/07/23 00:55:03;;;;;;;7.57;6.43;;;14.00;99.90;;;;;;5053794;28;20469;-83
2021/07/23 00:57:30;;;;;;;7.40;6.25;;;14.00;99.90;;;;;;5053685;28;20045;-76
2021/07/23 00:59:56;;;;;;;7.03;5.82;;;14.00;99.90;;;;;;5035412;28;20078;-78
2021/07/23 01:02:22;;;;;;;6.22;5.63;;;13.90;99.90;;;;;;5053366;28;20469;-76
2021/07/23 01:04:49;;;;;;;6.65;6.05;;;13.90;99.90;;;;;;5053897;28;20022;-78
2021/07/23 01:07:15;;;;;;;8.13;6.32;;;13.90;99.90;;;;;;5052864;28;20036;-69
2021/07/23 01:09:40;;;;;;;7.57;6.10;;;13.80;99.90;;;;;;5036152;28;20021;-82
2021/07/23 01:12:08;;;;;;;9.02;7.05;;;13.80;99.90;;;;;;5053528;28;20029;-78
2021/07/23 01:14:35;;;;;;;6.78;6.15;;;13.80;99.90;;;;;;5035010;28;20083;-82
2021/07/23 01:17:01;;;;;;;7.47;6.75;;;13.80;99.90;;;;;;5053430;28;20051;-70
2021/07/23 01:19:29;;;;;;;8.30;6.47;;;13.70;99.90;;;;;;5053155;28;20021;-71
2021/07/23 01:21:56;;;;;;;9.18;7.15;;;13.70;99.90;;;;;;5034877;28;20032;-73
2021/07/23 01:24:22;;;;;;;7.45;6.45;;;13.70;99.90;;;;;;5052945;28;20108;-81
2021/07/23 01:26:52;;;;;;;9.95;6.75;;;13.70;99.90;;;;;;5052914;28;20437;-74
2021/07/23 01:29:18;;;;;;;6.68;5.97;;;13.70;99.90;;;;;;5052526;28;20032;-72
2021/07/23 01:31:44;;;;;;;7.50;6.60;;;13.70;99.90;;;;;;5035469;28;20017;-72
2021/07/23 01:34:09;;;;;;;8.63;6.30;;;13.70;99.90;;;;;;5053095;28;20021;-78
2021/07/23 01:36:35;;;;;;;8.52;6.95;;;13.60;99.90;;;;;;5052566;28;20480;-82
2021/07/23 01:39:01;;;;;;;7.82;6.43;;;13.60;99.90;;;;;;5053259;28;20044;-83
2021/07/23 01:41:28;;;;;;;8.38;6.75;;;13.60;99.90;;;;;;5035036;28;20020;-78
2021/07/23 01:43:53;;;;;;;8.68;7.00;;;13.60;99.90;;;;;;5052432;28;20025;-73
2021/07/23 01:46:19;;;;;;;7.22;6.53;;;13.60;99.90;;;;;;5035175;28;20035;-76
2021/07/23 01:48:45;;;;;;;6.70;6.07;;;13.50;99.90;;;;;;5034575;28;20048;-72
2021/07/23 01:51:10;;;;;;;7.10;6.38;;;13.50;99.90;;;;;;5052749;28;20100;-85
2021/07/23 01:53:36;;;;;;;6.97;6.38;;;13.50;99.90;;;;;;5053200;28;20021;-75
2021/07/23 01:56:01;;;;;;;9.82;6.70;;;13.50;99.90;;;;;;5052174;28;20036;-83
2021/07/23 01:58:30;;;;;;;6.75;6.15;;;13.40;99.90;;;;;;5052657;28;20502;-79
2021/07/23 02:00:58;;;;;;;7.20;6.50;;;13.40;99.90;;;;;;5052899;28;20393;-77
2021/07/23 02:03:24;;;;;;;9.43;7.43;;;13.30;99.90;;;;;;5034093;28;20120;-69
2021/07/23 02:05:50;;;;;;;9.05;6.82;;;13.30;99.90;;;;;;5052917;28;20021;-83
2021/07/23 02:08:15;;;;;;;9.27;7.13;;;13.30;99.90;;;;;;5052660;28;20025;-81
2021/07/23 02:10:41;;;;;;;7.53;6.57;;;13.20;99.90;;;;;;5051873;28;20031;-85
2021/07/23 02:13:06;;;;;;;7.82;6.80;;;13.20;99.90;;;;;;5052627;28;20025;-78
2021/07/23 02:15:32;;;;;;;7.30;6.60;;;13.10;99.90;;;;;;5052337;28;20044;-73
2021/07/23 02:17:57;;;;;;;7.45;6.53;;;13.10;99.90;;;;;;5052047;28;20052;-85
2021/07/23 02:20:23;;;;;;;7.63;6.82;;;13.10;99.90;;;;;;5052398;28;20060;-77
2021/07/23 02:22:48;;;;;;;9.00;7.28;;;13.10;99.90;;;;;;5052730;28;20025;-79
2021/07/23 02:25:15;;;;;;;7.95;6.97;;;13.10;99.90;;;;;;5051772;28;20025;-72
2021/07/23 02:27:40;;;;;;;8.57;7.18;;;13.10;99.90;;;;;;5035501;28;20385;-81
2021/07/23 02:30:07;;;;;;;8.50;7.20;;;13.00;99.90;;;;;;5034829;28;20032;-83
2021/07/23 02:32:32;;;;;;;8.25;6.88;;;13.00;99.90;;;;;;5051716;28;20116;-73
2021/07/23 02:34:58;;;;;;;8.43;6.85;;;12.90;99.90;;;;;;5052732;28;20421;-85
2021/07/23 02:37:23;;;;;;;7.68;6.88;;;12.90;99.90;;;;;;5052819;28;20037;-76
2021/07/23 02:39:49;;;;;;;9.02;6.95;;;12.90;99.90;;;;;;5055896;28;20032;-77
2021/07/23 02:42:14;;;;;;;7.78;6.97;;;12.90;99.90;;;;;;5056354;28;20029;-81
2021/07/23 02:44:40;;;;;;;8.93;8.05;;;12.80;99.90;;;;;;5056395;28;20100;-78
2021/07/23 02:47:05;;;;;;;7.95;7.18;;;12.90;99.90;;;;;;5055893;28;20047;-72
2021/07/23 02:49:31;;;;;;;8.57;7.72;;;12.90;99.90;;;;;;5056166;28;20067;-81
2021/07/23 02:51:56;;;;;;;11.07;7.90;;;12.80;99.90;;;;;;5055661;28;20552;-74
2021/07/23 02:54:22;;;;;;;9.45;7.65;;;12.80;99.90;;;;;;5056254;28;20027;-81
2021/07/23 02:56:47;;;;;;;9.82;7.70;;;12.80;99.90;;;;;;5038317;28;20043;-84
2021/07/23 02:59:13;;;;;;;8.98;7.72;;;12.90;99.90;;;;;;5055127;28;20520;-74
2021/07/23 03:01:38;;;;;;;9.50;7.57;;;12.90;99.90;;;;;;5056340;28;20025;-82
2021/07/23 03:04:04;;;;;;;11.45;8.30;;;12.90;99.90;;;;;;5055987;28;20017;-82
2021/07/23 03:06:30;;;;;;;10.75;8.90;;;12.90;99.90;;;;;;5055204;28;20024;-76
2021/07/23 03:08:55;;;;;;;8.82;7.97;;;12.90;99.90;;;;;;5056023;28;20025;-70
2021/07/23 03:11:21;;;;;;;11.95;8.02;;;12.90;99.90;;;;;;5055711;28;20075;-69
2021/07/23 03:13:46;;;;;;;7.88;7.07;;;12.90;99.90;;;;;;5055271;28;20028;-72
2021/07/23 03:16:14;;;;;;;8.95;8.05;;;12.80;99.90;;;;;;5055375;28;20084;-74
2021/07/23 03:18:40;;;;;;;9.68;8.68;;;12.80;99.90;;;;;;5055872;28;20017;-83
2021/07/23 03:21:06;;;;;;;9.07;8.15;;;12.80;99.90;;;;;;5055220;28;20021;-83
2021/07/23 03:23:33;;;;;;;8.82;7.72;;;12.80;99.90;;;;;;5055375;28;20025;-78
2021/07/23 03:25:58;;;;;;;10.50;8.13;;;12.80;99.90;;;;;;5056369;28;20025;-81
2021/07/23 03:28:24;;;;;;;9.27;8.30;;;12.80;99.90;;;;;;5037070;28;20028;-80
2021/07/23 03:30:49;;;;;;;8.70;7.90;;;12.80;99.90;;;;;;5055692;28;20044;-83
2021/07/23 03:33:15;;;;;;;8.75;7.78;;;12.80;99.90;;;;;;5055190;28;20032;-82
2021/07/23 03:35:40;;;;;;;10.63;7.43;;;12.80;99.90;;;;;;5054813;28;20025;-77
2021/07/23 03:38:06;;;;;;;8.35;7.55;;;12.70;99.90;;;;;;5055498;28;20048;-76
2021/07/23 03:40:31;;;;;;;9.80;8.05;;;12.70;99.90;;;;;;5037383;28;20111;-78
2021/07/23 03:42:57;;;;;;;8.20;7.40;;;12.70;99.90;;;;;;5054871;28;20096;-84
2021/07/23 03:45:22;;;;;;;10.07;7.80;;;12.70;99.90;;;;;;5055164;28;20017;-76
2021/07/23 03:47:48;;;;;;;9.38;8.10;;;12.70;99.90;;;;;;5055089;28;20056;-75
2021/07/23 03:50:14;;;;;;;12.38;8.02;;;12.70;99.90;;;;;;5053586;28;20029;-79
2021/07/23 03:52:39;;;;;;;10.38;8.23;;;12.70;99.90;;;;;;5055273;28;20025;-76
2021/07/23 03:55:05;;;;;;;9.82;8.65;;;12.70;99.90;;;;;;5055188;28;20071;-81
2021/07/23 03:57:31;;;;;;;9.45;8.43;;;12.70;99.90;;;;;;5054194;28;20067;-76
2021/07/23 03:59:56;;;;;;;9.80;7.60;;;12.70;99.90;;;;;;5055288;28;20021;-74
2021/07/23 04:02:22;;;;;;;9.88;8.02;;;12.60;99.90;;;;;;5036274;28;20162;-78
2021/07/23 04:04:48;;;;;;;8.65;7.80;;;12.60;99.90;;;;;;5037030;28;20107;-79
2021/07/23 04:07:13;;;;;;;9.32;8.43;;;12.60;99.90;;;;;;5036757;28;20478;-83
2021/07/23 04:09:39;;;;;;;9.48;7.93;;;12.60;99.90;;;;;;5054280;28;20036;-81
2021/07/23 04:12:04;;;;;;;10.88;8.10;;;12.70;99.90;;;;;;5054895;28;20052;-82
2021/07/23 04:14:30;;;;;;;9.25;8.20;;;12.70;99.90;;;;;;5036361;28;20480;-86
2021/07/23 04:16:55;;;;;;;8.85;7.97;;;12.80;99.90;;;;;;5054082;28;20116;-78
2021/07/23 04:19:21;;;;;;;10.27;8.27;;;12.80;99.90;;;;;;5036530;28;20033;-69
2021/07/23 04:21:46;;;;;;;11.23;8.63;;;12.80;99.90;;;;;;5054774;28;20031;-81
2021/07/23 04:24:12;;;;;;;10.30;8.88;;;12.80;99.90;;;;;;5053680;28;20541;-81
2021/07/23 04:26:37;;;;;;;12.13;8.52;;;12.90;99.90;;;;;;5054897;28;20083;-87
2021/07/23 04:29:03;;;;;;;10.93;8.40;;;12.90;99.90;;;;;;5054544;28;20021;-86
2021/07/23 04:31:29;;;;;;;9.27;7.78;;;12.90;99.90;;;;;;5035706;28;20032;-82
2021/07/23 04:33:59;;;;;;;9.23;8.32;;;13.00;99.90;;;;;;5054543;28;20035;-72
2021/07/23 04:36:24;;;;;;;12.15;8.35;;;13.00;99.90;;;;;;5036254;28;20116;-84
2021/07/23 04:38:50;;;;;;;9.35;8.30;;;13.00;99.90;;;;;;5035690;28;20124;-69
2021/07/23 04:41:15;;;;;;;8.85;7.88;;;13.10;99.90;;;;;;5036251;28;20025;-73
2021/07/23 04:43:41;;;;;;;9.23;8.23;;;13.10;99.90;;;;;;5054179;28;20071;-72
2021/07/23 04:46:08;;;;;;;8.95;7.57;;;13.10;99.90;;;;;;5053642;28;20086;-78
2021/07/23 04:48:33;;;;;;;9.38;7.68;;;13.20;99.90;;;;;;5036291;28;20524;-78
2021/07/23 04:51:06;;;;;;;9.10;7.85;;;13.20;99.90;;;;;;5054183;28;20029;-78
2021/07/23 04:53:31;;;;;;;10.27;8.13;;;13.20;99.90;;;;;;5035052;28;20025;-80
2021/07/23 04:56:01;;;;;;;9.18;8.27;;;13.30;99.90;;;;;;5054036;28;20091;-76
2021/07/23 04:58:27;;;;;;;9.85;7.75;;;13.30;99.90;;;;;;5035869;28;20025;-82
2021/07/23 05:00:53;;;;;;;10.68;8.70;;;13.40;99.90;;;;;;5052362;28;20021;-75
2021/07/23 05:03:23;;;;;;;8.10;7.30;;;13.40;99.90;;;;;;5053541;28;20382;-75
2021/07/23 05:05:50;;;;;;;9.27;7.72;;;13.50;99.90;;;;;;5035257;28;20397;-82
2021/07/23 05:08:16;;;;;;;8.15;7.15;;;13.60;99.90;;;;;;5053365;28;20025;-75
2021/07/23 05:10:43;;;;;;;9.32;7.43;;;13.60;99.90;;;;;;5053715;28;20215;-82
2021/07/23 05:13:09;;;;;;;10.35;7.72;;;13.60;99.90;;;;;;5034982;28;20040;-78
2021/07/23 05:15:38;;;;;;;8.98;7.78;;;13.70;99.90;;;;;;5053994;28;20059;-76
2021/07/23 05:18:04;;;;;;;10.50;7.50;;;13.70;99.90;;;;;;5053659;28;20041;-86
2021/07/23 05:20:30;;;;;;;9.45;6.85;;;13.70;99.90;;;;;;5034900;28;20017;-72
2021/07/23 05:22:55;;;;;;;8.98;6.57;;;13.70;99.90;;;;;;5053340;28;20536;-78
2021/07/23 05:25:21;;;;;;;9.23;7.93;;;13.80;99.90;;;;;;5053104;28;20100;-74
2021/07/23 05:27:47;;;;;;;9.68;7.28;;;13.80;99.90;;;;;;5034995;28;20017;-75
2021/07/23 05:30:12;;;;;;;8.68;7.70;;;13.90;99.90;;;;;;5053215;28;20036;-78
2021/07/23 05:32:38;;;;;;;10.90;6.85;;;13.90;99.90;;;;;;5035504;28;20021;-81
2021/07/23 05:35:04;;;;;;;8.35;6.35;;;14.00;99.90;;;;;;5052652;28;20374;-75
2021/07/23 05:37:33;;;;;;;7.32;6.22;;;14.10;99.90;;;;;;5052986;28;20033;-80
2021/07/23 05:39:58;;;;;;;6.65;6.00;;;14.10;99.90;;;;;;5053173;28;20021;-78
2021/07/23 05:42:24;;;;;;;10.52;6.07;;;14.10;99.90;;;;;;5052336;28;20025;-82
2021/07/23 05:44:49;;;;;;;6.03;5.35;;;14.20;99.90;;;;;;5052925;28;20032;-74
2021/07/23 05:47:15;;;;;;;7.28;5.45;;;14.30;99.90;;;;;;5035100;28;20028;-69
2021/07/23 05:49:40;;;;;;;5.60;5.10;;;14.40;99.90;;;;;;5034741;28;20074;-80
2021/07/23 05:52:06;;;;;;;5.28;4.78;;;14.50;99.90;;;;;;5052771;28;20064;-74
2021/07/23 05:54:32;;;;;;;5.68;4.53;;;14.50;99.90;;;;;;5034780;28;20053;-87
2021/07/23 05:56:57;;;;;;;5.32;4.00;;;14.60;99.90;;;;;;5052156;28;20037;-79
2021/07/23 05:59:23;;;;;;;5.63;3.88;;;14.70;99.90;;;;;;5052643;28;20017;-78
2021/07/23 06:01:49;;;;;;;7.45;3.78;;;14.80;99.90;;;;;;5052929;28;20547;-69
2021/07/23 06:04:14;;;;;;;5.97;3.88;;;14.80;99.90;;;;;;5034470;28;20550;-73
2021/07/23 06:06:40;;;;;;;6.07;4.10;;;14.90;99.90;;;;;;5035080;28;20060;-78
2021/07/23 06:09:05;;;;;;;4.00;3.58;;;14.90;99.90;;;;;;5051983;28;20066;-72
2021/07/23 06:11:31;;;;;;;4.63;3.45;;;15.00;99.90;;;;;;5052230;28;20028;-83
2021/07/23 06:13:56;;;;;;;7.05;3.90;;;15.10;99.90;;;;;;5052548;28;20056;-76
2021/07/23 06:16:22;;;;;;;5.40;3.63;;;15.20;99.90;;;;;;5051467;28;20785;-84
2021/07/23 06:18:48;;;;;;;5.57;3.20;;;15.20;99.90;;;;;;5052831;28;20047;-85
2021/07/23 06:21:13;;;;;;;6.13;3.45;;;15.30;99.90;;;;;;5052377;28;20021;-76
2021/07/23 06:23:39;;;;;;;4.18;3.40;;;15.40;99.90;;;;;;5051978;28;20350;-73
2021/07/23 06:26:06;;;;;;;7.60;3.90;;;15.40;99.90;;;;;;5034868;28;20021;-72
2021/07/23 06:28:32;;;;;;;3.33;3.03;;;15.50;99.90;;;;;;5052052;28;20044;-70
2021/07/23 06:31:02;;;;;;;4.65;3.72;;;15.60;99.90;;;;;;5052011;28;20385;-76
2021/07/23 06:33:27;;;;;;;4.55;3.90;;;15.70;99.90;;;;;;5052339;28;20039;-81
2021/07/23 06:35:53;;;;;;;4.25;3.65;;;15.80;99.90;;;;;;5052612;28;20096;-79
2021/07/23 06:38:18;;;;;;;5.15;3.53;;;15.90;99.90;;;;;;5033791;28;20132;-77
2021/07/23 06:40:44;;;;;;;4.20;3.65;;;16.00;99.90;;;;;;5052270;28;20028;-82
2021/07/23 06:43:10;;;;;;;4.75;3.83;;;16.20;99.90;;;;;;5034273;28;20025;-78
2021/07/23 06:45:35;;;;;;;5.68;3.58;;;16.50;99.90;;;;;;5051720;28;20028;-73
2021/07/23 06:48:01;;;;;;;4.50;3.88;;;16.80;99.90;;;;;;5034602;28;20017;-72
2021/07/23 06:50:26;;;;;;;4.97;4.00;;;17.10;99.90;;;;;;5052238;28;20021;-71
2021/07/23 06:52:52;;;;;;;4.82;3.90;;;17.50;99.90;;;;;;5051507;28;20021;-74
2021/07/23 06:55:17;;;;;;;7.20;4.75;;;17.90;99.90;;;;;;5052079;28;20104;-84
2021/07/23 06:57:43;;;;;;;8.07;4.10;;;18.20;99.90;;;;;;5052309;28;20033;-79
2021/07/23 07:00:11;;;;;;;6.13;4.38;;;18.40;99.90;;;;;;5051259;28;20025;-71
2021/07/23 07:02:36;;;;;;;5.35;4.85;;;18.60;99.90;;;;;;5055830;28;20025;-84
2021/07/23 07:05:02;;;;;;;5.43;4.45;;;18.60;99.90;;;;;;5056653;28;20480;-73
2021/07/23 07:07:28;;;;;;;8.25;4.60;;;18.70;99.90;;;;;;5050962;28;20024;-68
2021/07/23 07:09:54;;;;;;;6.05;4.40;;;18.70;99.90;;;;;;5072152;28;20438;-68
2021/07/23 07:12:20;;;;;;;5.90;4.30;;;18.70;99.90;;;;;;5034254;28;20465;-72
2021/07/23 07:14:46;;;;;;;4.78;3.50;;;18.80;99.90;;;;;;5052035;28;20063;-77
2021/07/23 07:17:11;;;;;;;5.68;3.53;;;18.90;99.90;;;;;;5033765;28;20053;-68
2021/07/23 07:19:37;;;;;;;3.78;3.28;;;18.90;99.90;;;;;;5051667;28;20029;-69
2021/07/23 07:22:03;;;;;;;8.07;3.40;;;19.00;99.90;;;;;;5052043;28;20071;-68
2021/07/23 07:24:29;;;;;;;9.15;4.15;;;19.10;99.90;;;;;;5072428;28;20028;-81
2021/07/23 07:26:55;;;;;;;3.65;3.20;;;19.30;99.90;;;;;;5074962;28;20032;-71
2021/07/23 07:29:20;;;;;;;3.63;3.30;;;19.40;99.90;;;;;;5075283;28;20023;-73
2021/07/23 07:31:46;;;;;;;4.68;3.40;;;19.50;99.90;;;;;;5075768;28;20499;-69
2021/07/23 07:34:13;;;;;;;5.50;3.53;;;19.70;99.90;;;;;;5056682;28;20033;-78
2021/07/23 07:36:39;;;;;;;4.40;3.47;;;19.90;99.90;;;;;;5075397;28;20021;-75
2021/07/23 07:39:05;;;;;;;3.30;2.90;;;20.00;99.90;;;;;;5075493;28;20078;-85
2021/07/23 07:41:31;;;;;;;4.15;3.65;;;20.20;99.90;;;;;;5056833;28;20074;-83
2021/07/23 07:43:56;;;;;;;6.05;3.70;;;20.30;99.90;;;;;;5075464;28;20108;-88
2021/07/23 07:46:22;;;;;;;3.65;3.13;;;20.40;99.90;;;;;;5075373;28;20473;-76
2021/07/23 07:48:48;;;;;;;5.07;3.65;;;20.50;99.90;;;;;;5067436;28;20037;-80
2021/07/23 07:51:14;;;;;;;4.70;3.70;;;20.70;99.90;;;;;;5056315;28;20425;-89
2021/07/23 07:53:40;;;;;;;4.05;3.47;;;20.80;99.90;;;;;;5066698;28;20032;-78
2021/07/23 07:56:13;;;;;;;3.90;3.17;;;20.80;99.90;;;;;;5052101;28;20055;-81
2021/07/23 07:58:39;;;;;;;4.10;3.20;;;21.00;99.90;;;;;;5071295;28;20057;-71
2021/07/23 08:01:09;;;;;;;4.15;3.53;;;21.10;99.90;;;;;;5055665;28;20443;-83
2021/07/23 08:03:34;;;;;;;4.75;3.60;;;21.30;99.90;;;;;;5057337;28;20021;-70
2021/07/23 08:06:05;;;;;;;4.72;3.80;;;21.30;99.90;;;;;;5045089;28;20357;-77
2021/07/23 08:08:31;;;;;;;4.03;3.27;;;21.30;99.90;;;;;;5045221;28;20056;-74
2021/07/23 08:10:56;;;;;;;3.28;2.97;;;21.40;99.90;;;;;;5052329;28;20067;-71
2021/07/23 08:13:26;;;;;;;4.70;3.80;;;21.50;99.30;;;;;;5074035;28;20377;-92
2021/07/23 08:15:54;;;;;;;4.32;3.85;;;21.50;99.40;;;;;;5051623;28;20404;-89
2021/07/23 08:18:20;;;;;;;6.38;3.80;;;21.50;99.40;;;;;;5036546;28;20021;-77
2021/07/23 08:20:46;;;;;;;4.63;3.53;;;21.50;99.10;;;;;;5054000;28;20032;-81
2021/07/23 08:23:12;;;;;;;7.82;4.53;;;21.60;99.00;;;;;;5054345;28;20017;-79
2021/07/23 08:25:37;;;;;;;5.53;4.15;;;21.60;99.40;;;;;;5054482;28;20027;-79
2021/07/23 08:28:03;;;;;;;4.97;4.18;;;21.70;99.00;;;;;;5059502;28;20021;-83
2021/07/23 08:30:28;;;;;;;3.78;3.30;;;21.50;98.70;;;;;;5056331;28;20033;-72
2021/07/23 08:32:54;;;;;;;4.80;3.78;;;21.50;98.80;;;;;;5066480;28;20025;-72
2021/07/23 08:35:19;;;;;;;5.38;3.65;;;21.40;98.90;;;;;;5055391;28;20086;-70
2021/07/23 08:37:45;;;;;;;5.35;4.05;;;21.20;98.80;;;;;;5056253;28;20043;-82
2021/07/23 08:40:11;;;;;;;4.45;4.05;;;21.10;99.00;;;;;;5074031;28;20017;-83
2021/07/23 08:42:37;;;;;;;4.72;3.78;;;21.20;99.60;;;;;;5072658;28;20469;-78
2021/07/23 08:45:06;;;;;;;5.28;3.55;;;21.40;99.60;;;;;;5074571;28;20020;-75
2021/07/23 08:47:34;;;;;;;4.40;3.42;;;21.60;99.30;;;;;;5073892;28;20095;-69
2021/07/23 08:50:00;;;;;;;3.67;3.20;;;21.80;99.10;;;;;;5055520;28;20028;-72
2021/07/23 08:52:38;;;;;;;3.90;3.28;;;21.90;98.70;;;;;;5073734;28;20512;-71
2021/07/23 08:55:05;;;;;;;5.00;3.97;;;22.10;98.60;;;;;;5056179;28;20035;-72
2021/07/23 08:57:31;;;;;;;4.38;3.65;;;22.20;98.00;;;;;;5073065;28;20416;-75
2021/07/23 08:59:56;;;;;;;4.82;3.65;;;22.10;97.70;;;;;;5073579;28;20017;-69
2021/07/23 09:02:22;;;;;;;4.53;3.97;;;22.00;98.00;;;;;;5073571;28;20029;-83
2021/07/23 09:04:47;;;;;;;4.38;3.80;;;22.00;98.10;;;;;;5072979;28;20012;-82
2021/07/23 09:07:17;;;;;;;4.47;3.95;;;22.00;97.90;;;;;;5073390;28;20027;-82
2021/07/23 09:09:42;;;;;;;5.82;3.83;;;22.00;97.90;;;;;;5073706;28;20021;-85
2021/07/23 09:12:08;;;;;;;3.92;3.50;;;22.00;97.70;;;;;;5072615;28;20035;-82
2021/07/23 09:14:35;;;;;;;5.25;3.60;;;21.90;98.00;;;;;;5055582;28;20017;-84
2021/07/23 09:17:01;;;;;;;5.72;4.07;;;22.00;98.00;;;;;;5054840;28;20436;-82
2021/07/23 09:19:26;;;;;;;4.70;3.63;;;22.00;98.00;;;;;;5073163;28;20062;-69
2021/07/23 09:21:57;;;;;;;6.00;4.35;;;22.10;97.70;;;;;;5055519;28;20020;-85
2021/07/23 09:24:24;;;;;;;7.05;3.97;;;22.00;97.40;;;;;;5072889;28;20060;-72
2021/07/23 09:26:49;;;;;;;5.15;4.22;;;21.80;97.70;;;;;;5055343;28;20028;-70
2021/07/23 09:29:15;;;;;;;4.75;3.90;;;21.80;98.10;;;;;;5073164;28;20029;-76
2021/07/23 09:32:07;;;;;;;5.57;4.15;;;21.80;98.10;;;;;;5072657;28;20100;-75
2021/07/23 09:34:33;;;;;;;4.40;3.97;;;21.80;98.30;;;;;;5073131;28;20047;-76
2021/07/23 09:37:06;;;;;;;5.85;3.92;;;21.80;98.50;;;;;;5073064;28;20037;-79
2021/07/23 09:39:32;;;;;;;5.03;3.63;;;21.90;98.50;;;;;;5072161;28;20020;-76
2021/07/23 09:42:02;;;;;;;6.15;4.47;;;21.80;98.50;;;;;;5055143;28;20025;-70
2021/07/23 09:44:27;;;;;;;5.60;4.43;;;21.70;98.50;;;;;;5072670;28;20025;-75
2021/07/23 09:46:53;;;;;;;4.13;3.72;;;21.70;98.50;;;;;;5054045;28;20024;-71
2021/07/23 09:49:27;;;;;;;4.18;3.75;;;21.60;98.70;;;;;;5072695;28;20504;-73
2021/07/23 09:52:01;;;;;;;5.65;4.70;;;21.70;98.60;;;;;;5055173;28;20539;-70
2021/07/23 09:54:27;;;;;;;6.05;3.88;;;21.70;98.40;;;;;;5054215;28;20490;-73
2021/07/23 09:56:53;;;;;;;4.70;3.72;;;21.80;98.60;;;;;;5073013;28;20104;-73
2021/07/23 09:59:52;;;;;;;5.03;4.43;;;21.90;98.30;;;;;;5071921;28;20047;-78
2021/07/23 10:02:21;;;;;;;5.57;4.05;;;22.10;97.80;;;;;;5072489;28;20029;-84
2021/07/23 10:05:04;;;;;;;5.22;3.22;;;22.20;97.10;;;;;;5054785;28;20021;-75
2021/07/23 10:07:38;;;;;;;7.32;4.57;;;22.40;97.10;;;;;;5054204;28;20523;-82
2021/07/23 10:10:12;;;;;;;4.57;3.67;;;22.50;96.60;;;;;;5054830;28;20380;-77
2021/07/23 10:12:39;;;;;;;5.13;4.43;;;22.50;96.60;;;;;;5072686;28;20016;-81
2021/07/23 10:15:06;;;;;;;5.32;3.90;;;22.60;96.80;;;;;;5071772;28;20020;-74
2021/07/23 10:17:33;;;;;;;8.10;4.15;;;22.70;96.70;;;;;;5054426;28;20059;-76
2021/07/23 10:19:59;;;;;;;5.65;4.20;;;22.90;96.10;;;;;;5072665;28;20492;-71
2021/07/23 10:22:26;;;;;;;6.88;4.18;;;23.00;95.90;;;;;;5071585;28;20137;-70
2021/07/23 10:24:52;;;;;;;6.20;4.00;;;23.10;95.70;;;;;;5072324;28;20024;-76
2021/07/23 10:27:21;;;;;;;6.32;3.95;;;23.20;95.70;;;;;;5053570;28;20052;-76
2021/07/23 10:29:49;;;;;;;6.38;4.45;;;23.50;95.50;;;;;;5054805;28;20035;-73
2021/07/23 10:32:24;;;;;;;5.18;3.85;;;23.70;94.80;;;;;;5072009;28;20384;-77
2021/07/23 10:34:51;;;;;;;6.00;3.88;;;23.60;95.00;;;;;;5053960;28;20028;-78
2021/07/23 10:37:28;;;;;;;4.78;3.95;;;23.80;94.90;;;;;;5054098;28;20093;-73
2021/07/23 10:40:09;;;;;;;8.27;5.45;;;23.90;94.20;;;;;;5072466;28;20021;-73
2021/07/23 10:42:39;;;;;;;5.85;4.18;;;23.90;94.10;;;;;;5072039;28;20390;-74
2021/07/23 10:45:07;;;;;;;6.55;4.53;;;23.90;94.60;;;;;;5072298;28;20020;-78
2021/07/23 10:47:35;;;;;;;4.53;3.80;;;23.90;94.60;;;;;;5072255;28;20028;-85
2021/07/23 10:50:00;;;;;;;4.10;3.70;;;23.90;94.20;;;;;;5054196;28;20365;-82
2021/07/23 10:52:27;;;;;;;3.97;3.50;;;23.90;94.10;;;;;;5054117;28;20025;-70
2021/07/23 10:55:12;;;;;;;4.03;3.60;;;23.80;94.10;;;;;;5054165;28;20032;-76
2021/07/23 10:57:38;;;;;;;4.97;3.80;;;23.70;94.00;;;;;;5071550;28;20079;-81
2021/07/23 11:00:04;;;;;;;3.53;3.22;;;23.70;93.70;;;;;;5057092;28;20505;-70
2021/07/23 11:02:30;;;;;;;4.47;3.42;;;23.70;93.90;;;;;;5057135;28;20036;-70
2021/07/23 11:05:06;;;;;;;3.83;3.33;;;23.70;93.80;;;;;;5075854;28;20033;-75
2021/07/23 11:07:32;;;;;;;3.90;3.30;;;23.80;93.30;;;;;;5061681;28;20193;-77
2021/07/23 11:09:58;;;;;;;4.00;3.60;;;23.80;92.80;;;;;;5059629;28;20511;-71
2021/07/23 11:12:31;;;;;;;4.97;3.80;;;23.80;93.00;;;;;;5050067;28;20024;-70
2021/07/23 11:15:02;;;;;;;4.38;3.65;;;23.80;92.70;;;;;;5045411;28;20020;-74
2021/07/23 11:17:29;;;;;;;4.22;3.55;;;23.90;92.90;;;;;;5050665;28;20072;-75
2021/07/23 11:20:01;;;;;;;5.78;3.92;;;23.80;92.50;;;;;;5055384;28;20021;-79
2021/07/23 11:22:36;;;;;;;3.65;3.08;;;23.70;92.50;;;;;;5053574;28;20542;-76
2021/07/23 11:25:06;;;;;;;4.65;3.38;;;23.60;92.60;;;;;;5049361;28;20096;-74
2021/07/23 11:27:41;;;;;;;5.10;4.10;;;23.60;92.70;;;;;;5035063;28;20456;-76
2021/07/23 11:30:21;;;;;;;5.43;3.88;;;23.60;92.30;;;;;;5045224;28;20064;-73
2021/07/23 11:32:54;;;;;;;5.40;4.40;;;23.60;92.40;;;;;;5050986;28;20032;-73
2021/07/23 11:35:24;;;;;;;5.05;3.90;;;23.80;92.50;;;;;;5037342;28;20035;-87
2021/07/23 11:37:51;;;;;;;3.97;3.58;;;24.20;93.20;;;;;;5041876;28;20401;-86
2021/07/23 11:40:18;;;;;;;4.38;3.67;;;24.60;92.90;;;;;;5037044;28;20025;-86
2021/07/23 11:42:50;;;;;;;5.57;3.83;;;24.70;91.70;;;;;;5053735;28;20070;-82
2021/07/23 11:45:19;;;;;;;6.15;3.85;;;24.70;92.50;;;;;;5053919;28;20111;-77
2021/07/23 11:47:50;;;;;;;4.82;4.25;;;24.60;91.90;;;;;;5053252;28;20055;-73
2021/07/23 11:50:21;;;;;;;4.80;4.40;;;24.50;92.00;;;;;;5054542;28;20025;-87
2021/07/23 11:52:47;;;;;;;;;;;24.40;92.60;;;;;;5049097;28;20132;-77
2021/07/23 11:55:17;;;;;;;5.13;4.20;;;24.50;92.80;;;;;;5041725;28;19909;-82
2021/07/23 11:57:44;;;;;;;6.72;4.20;;;24.60;92.30;;;;;;5036709;28;20499;-79
2021/07/23 12:00:19;;;;;;;5.88;3.72;;;24.70;91.90;;;;;;5034827;28;20018;-82
2021/07/23 12:02:45;;;;;;;5.55;3.78;;;24.80;91.40;;;;;;5032897;28;20442;-69
2021/07/23 12:05:12;;;;;;;4.10;3.65;;;25.00;91.50;;;;;;5032240;28;20053;-76
2021/07/23 12:07:39;;;;;;;4.40;4.00;;;25.00;90.80;;;;;;5033540;28;20036;-72
2021/07/23 12:10:16;;;;;;;5.63;3.95;;;25.10;90.80;;;;;;5035214;28;20104;-83
2021/07/23 12:12:43;;;;;;;4.10;3.70;;;25.20;90.50;;;;;;5040326;28;20061;-70
2021/07/23 12:15:10;;;;;;;5.20;4.70;;;25.30;90.80;;;;;;5053369;28;20027;-72
2021/07/23 12:17:41;;;;;;;5.28;4.75;;;25.50;90.70;;;;;;5052922;28;20052;-70
2021/07/23 12:20:08;;;;;;;4.65;4.15;;;25.50;90.30;;;;;;5053896;28;20025;-77
2021/07/23 12:22:34;;;;;;;4.43;3.85;;;25.60;90.10;;;;;;5054678;28;20029;-71
2021/07/23 12:25:20;;;;;;;5.60;4.80;;;25.60;90.30;;;;;;5054533;28;20017;-70
2021/07/23 12:28:03;;;;;;;5.78;5.22;;;25.70;90.00;;;;;;5052708;28;20028;-73
2021/07/23 12:30:36;;;;;;;6.22;4.95;;;25.50;88.20;;;;;;5054224;28;20025;-83
2021/07/23 12:33:17;;;;;;;8.63;5.22;;;25.30;89.10;;;;;;5054321;28;20029;-71
2021/07/23 12:35:44;;;;;;;5.65;4.40;;;25.10;89.80;;;;;;5053850;28;20108;-70
2021/07/23 12:38:11;;;;;;;5.30;4.65;;;25.30;89.70;;;;;;5053922;28;20032;-76
2021/07/23 12:40:42;;;;;;;5.88;5.15;;;25.50;90.40;;;;;;5054526;28;20049;-69
2021/07/23 12:43:17;;;;;;;5.53;4.43;;;25.70;88.70;;;;;;5051973;28;20052;-75
2021/07/23 12:45:43;;;;;;;5.72;4.38;;;25.70;87.80;;;;;;5054640;28;20021;-70